Flight Track Log - Related Links

Times and Time Zones

All times are in EDT time to prevent confusion due to time zone crossing. See the UAL563 flight status page for this flight to view local times or setup timezone preferences in your user account.

Time Position Orientation Groundspeed Altitude Reporting Facility
EDT Latitude Longitude Course Direction KTS MPH feet Rate Location/Type
Mon 06:08:54 PM 39.8604 -75.2787 261° West 177 204 2,400  Level FlightAware ADS-B (KPHL)
Mon 06:09:50 PM 39.8500 -75.3833 261° West 233 268 3,700 2,564 Climbing Philadelphia TRACON
Mon 06:10:44 PM 39.9000 -75.4500 314° West 290 334 7,100 3,526 Climbing Philadelphia TRACON
Mon 06:11:00 PM 39.9837 -75.7356 323° Northwest  Level Estimated
Mon 06:11:44 PM 39.9667 -75.4833 339° North 287 330 10,400  Level Philadelphia TRACON
Mon 06:12:00 PM 40.2589 -75.6132 311° West  Level FlightAware Approximate
Mon 06:13:00 PM 40.3244 -75.7103 315° West  Level FlightAware Approximate
Mon 06:13:31 PM 40.1094 -75.5231 348° North 323 372 13,000  Level New York Center
Mon 06:14:31 PM 40.1897 -75.5503 345° North 323 372 13,200 1,462 Climbing New York Center
Mon 06:15:30 PM 40.2694 -75.6375 320° Northwest 304 350 15,900 1,900 Climbing New York Center
Mon 06:16:31 PM 40.3325 -75.7264 313° West 321 369 17,000 541 Climbing New York Center
Mon 06:17:32 PM 40.3933 -75.8153 312° West 332 382 17,000 150 Level New York Center
Mon 06:18:31 PM 40.4447 -75.9253 302° West 344 396 17,300 992 Climbing New York Center
Mon 06:19:33 PM 40.4733 -76.0367 289° West 359 413 19,000 850 Climbing New York Center
Mon 06:20:31 PM 40.5011 -76.1617 286° West 368 423 19,000 102 Level New York Center
Mon 06:21:31 PM 40.5353 -76.3200 286° West 397 457 19,200 1,537 Climbing New York Center
Mon 06:22:32 PM 40.5719 -76.4706 288° West 420 483 22,100 2,824 Climbing New York Center
Mon 06:23:30 PM 40.6028 -76.6069 287° West 415 478 24,800 2,168 Climbing New York Center
Mon 06:24:31 PM 40.6356 -76.7467 287° West 405 466 26,400 1,091 Climbing New York Center
Mon 06:25:31 PM 40.6697 -76.8919 287° West 410 472 27,000 303 Climbing New York Center
Mon 06:26:30 PM 40.7050 -77.0511 286° West 428 493 27,000 200 Level New York Center
Mon 06:27:31 PM 40.7422 -77.2133 287° West 443 510 27,400 1,422 Climbing New York Center
Mon 06:28:45 PM 40.7867 -77.4028 287° West 464 534 30,200 1,853 Climbing Cleveland Center
Mon 06:29:47 PM 40.8200 -77.5533 286° West 438 504 31,600 1,344 Climbing Cleveland Center
Mon 06:30:50 PM 40.8519 -77.7081 285° West 439 505 33,000 1,536 Climbing Cleveland Center
Mon 06:31:52 PM 40.8919 -77.8892 286° West 434 499 34,800 1,452 Climbing Cleveland Center
Mon 06:32:54 PM 40.9217 -78.0381 285° West 426 490 36,000 581 Climbing Cleveland Center
Mon 06:33:56 PM 40.9403 -78.1956 279° West 430 495 36,000 581 Level Cleveland Center
Mon 06:34:58 PM 40.9617 -78.3694 279° West 441 507 37,200 919 Climbing Cleveland Center
Mon 06:36:00 PM 40.9822 -78.5322 280° West 441 507 37,900 387 Climbing Cleveland Center
Mon 06:37:02 PM 41.0006 -78.6933 279° West 442 509 38,000 48 Climbing Cleveland Center
Mon 06:38:05 PM 41.0200 -78.8542 279° West 441 507 38,000  Level Cleveland Center
Mon 06:39:07 PM 41.0381 -79.0064 279° West 423 487 38,000  Level Cleveland Center
Mon 06:40:09 PM 41.0558 -79.1569 279° West 416 479 38,000  Level Cleveland Center
Mon 06:41:11 PM 41.0728 -79.3086 278° West 416 479 38,000  Level Cleveland Center
Mon 06:42:13 PM 41.0936 -79.4917 279° West 417 480 38,000  Level Cleveland Center
Mon 06:43:15 PM 41.1097 -79.6447 278° West 418 481 38,000  Level Cleveland Center
Mon 06:44:17 PM 41.1289 -79.8086 279° West 418 481 38,000  Level Cleveland Center
Mon 06:45:20 PM 41.1453 -79.9603 278° West 418 481 38,000  Level Cleveland Center
Mon 06:46:22 PM 41.1597 -80.1033 278° West 418 481 38,000  Level Cleveland Center
Mon 06:47:24 PM 41.1764 -80.2581 278° West 420 483 38,000  Level Cleveland Center
Mon 06:48:26 PM 41.1936 -80.4278 278° West 422 486 38,000  Level Cleveland Center
Mon 06:49:28 PM 41.2103 -80.5839 278° West 425 489 38,000  Level Cleveland Center
Mon 06:50:30 PM 41.2261 -80.7389 278° West 426 490 38,000  Level Cleveland Center
Mon 06:51:33 PM 41.2439 -80.9244 277° West 425 489 38,000  Level Cleveland Center
Mon 06:52:35 PM 41.2592 -81.0781 278° West 424 488 38,000  Level Cleveland Center
Mon 06:53:37 PM 41.2711 -81.2333 276° West 424 488 38,000  Level Cleveland Center
Mon 06:54:39 PM 41.2744 -81.4097 271° West 434 499 38,000  Level Cleveland Center
Mon 06:55:41 PM 41.2775 -81.5736 271° West 438 504 38,000  Level Cleveland Center
Mon 06:56:43 PM 41.2808 -81.7369 272° West 439 505 38,000  Level Cleveland Center
Mon 06:57:46 PM 41.2831 -81.9044 271° West 446 513 38,000  Level Cleveland Center
Mon 06:58:48 PM 41.2858 -82.0661 271° West 442 509 38,000  Level Cleveland Center
Mon 06:59:50 PM 41.2897 -82.2514 272° West 436 502 38,000  Level Cleveland Center
Mon 07:00:52 PM 41.2922 -82.4094 271° West 433 498 38,000  Level Cleveland Center
Mon 07:01:54 PM 41.2928 -82.5647 270° West 424 488 38,000  Level Cleveland Center
Mon 07:02:56 PM 41.2958 -82.7197 272° West 424 488 38,000  Level Cleveland Center
Mon 07:03:58 PM 41.2975 -82.8756 271° West 424 488 38,000  Level Cleveland Center
Mon 07:05:01 PM 41.2983 -83.0631 270° West 423 487 38,000  Level Cleveland Center
Mon 07:06:03 PM 41.3000 -83.2267 271° West 427 491 38,000  Level Cleveland Center
Mon 07:07:05 PM 41.2994 -83.3853 270° West 427 491 38,000  Level Cleveland Center
Mon 07:08:07 PM 41.3008 -83.5453 271° West 428 493 38,000  Level Cleveland Center
Mon 07:09:09 PM 41.3011 -83.7036 270° West 429 494 38,000  Level Cleveland Center
Mon 07:10:11 PM 41.3011 -83.8608 270° West 428 493 38,000  Level Cleveland Center
Mon 07:11:14 PM 41.3019 -84.0456 270° West 428 493 38,000 -96 Level Cleveland Center
Mon 07:12:16 PM 41.3022 -84.2033 270° West 428 493 37,800 -581 Descending Cleveland Center
Mon 07:13:18 PM 41.3008 -84.3594 269° West 427 491 36,800 -1,016 Descending Cleveland Center
Mon 07:14:20 PM 41.2997 -84.5192 270° West 428 493 35,700 -1,355 Descending Cleveland Center
Mon 07:15:22 PM 41.2992 -84.6764 270° West 427 491 34,000 -1,085 Descending Cleveland Center
Mon 07:15:54 PM 41.3000 -84.7678 271° West 427 491 34,000 -1,213 Level Chicago Center
Mon 07:16:56 PM 41.2975 -84.9250 269° West 426 490 32,100 -2,855 Descending Chicago Center
Mon 07:17:58 PM 41.2958 -85.0844 269° West 426 490 28,100 -2,952 Descending Chicago Center
Mon 07:19:00 PM 41.2942 -85.2469 269° West 434 499 26,000 -1,016 Descending Chicago Center
Mon 07:20:02 PM 41.2919 -85.4036 269° West 427 491 26,000  Level Chicago Center
Mon 07:21:04 PM 41.2889 -85.5933 269° West 426 490 26,000 -336 Level Chicago Center
Mon 07:22:07 PM 41.2872 -85.7475 269° West 417 480 25,300 -480 Descending Chicago Center
Mon 07:23:09 PM 41.2836 -85.9022 268° West 414 476 25,000 -290 Descending Chicago Center
Mon 07:24:11 PM 41.2842 -86.0564 270° West 415 478 24,700 -1,403 Descending Chicago Center
Mon 07:25:13 PM 41.3017 -86.2061 279° West 408 470 22,100 -2,419 Descending Chicago Center
Mon 07:26:15 PM 41.3189 -86.3508 279° West 396 456 19,700 -2,468 Descending Chicago Center
Mon 07:27:17 PM 41.3344 -86.4861 279° West 373 429 17,000 -2,640 Descending Chicago Center
Mon 07:28:20 PM 41.4028 -86.6094 306° West 371 427 14,200 -2,352 Descending Chicago Center
Mon 07:29:22 PM 41.4925 -86.6753 331° Northwest 369 425 12,100 -1,016 Descending Chicago Center
Mon 07:30:24 PM 41.5850 -86.7436 331° Northwest 362 417 12,100 -48 Level Chicago Center
Mon 07:31:26 PM 41.6833 -86.7986 337° Northwest 366 421 12,000 -48 Descending Chicago Center
Mon 07:32:28 PM 41.7839 -86.8125 354° North 366 421 12,000  Level Chicago Center
Mon 07:33:30 PM 41.8853 -86.8531 343° North 359 413 12,000 -336 Level Chicago Center
Mon 07:34:33 PM 41.9456 -86.9308 316° Northwest 307 353 11,300 -1,008 Descending Chicago Center
Mon 07:35:35 PM 41.9719 -87.0286 290° West 259 298 9,900 -1,113 Descending Chicago Center
Mon 07:36:37 PM 41.9800 -87.1214 277° West 254 292 9,000 -387 Descending Chicago Center
Mon 07:37:39 PM 41.9819 -87.2175 272° West 234 269 9,100  Climbing Chicago Center
Mon 07:38:41 PM 41.9819 -87.2933 270° West 207 238 9,000 -480 Descending Chicago Center
Mon 07:39:44 PM 41.9822 -87.3767 270° West 208 239 8,100 -1,008 Descending Chicago Center
Mon 07:40:46 PM 41.9819 -87.4528 270° West 207 238 6,900 -1,161 Descending Chicago Center
Mon 07:41:48 PM 41.9822 -87.5367 270° West 210 242 5,700 -968 Descending Chicago Center
Mon 07:42:50 PM 41.9833 -87.6100 271° West 199 229 4,900 -1,016 Descending Chicago Center
Mon 07:43:52 PM 41.9833 -87.6803 270° West 181 208 3,600 -1,065 Descending Chicago Center
Mon 07:44:54 PM 41.9836 -87.7439 270° West 174 200 2,700 -864 Descending Chicago Center
Mon 07:45:57 PM 41.9836 -87.8075 270° West 161 185 1,800 -720 Descending Chicago Center
Mon 07:46:59 PM 41.9831 -87.8547 269° West 131 151 1,200 -484 Descending Chicago Center
Mon 07:48:01 PM 41.9828 -87.8956 269° West 128 147 800 -387 Descending Chicago Center

Login

Don't have an account? Register now (free) for customized features, flight alerts, and more!